PWSweather.com
Personal Weather Stations
Station Observations
COONRAPIDS
Minneapolis, MN 55433

Minneapolis, MN 55433

Lat: 45.187721, Lon: -93.36828

Elevation: 898

Station Type: Davis Vantage Pro 2

High Low Average
Temperature 57.1°F13.9°C 36.1°F2.3°C 45.7°F7.6°C
Dew Point 41.3°F5.2°C 31.1°F-0.5°C 36.2°F2.3°C
Winds 4.6 mph 7.4 kmh Calm Calm Calm SWCalm SW
Wind Gusts 10.4 mph16.7 kmh -- 1.0 mph1.6 kmh
Humidity 89% 40% 72%
Pressure 30.15 in1021.0 mb 30.09 in1019.0 mb -
Precipitation 0.00 in0.0 mm - -
Hour Temp Dew Point Humidity Winds Wind Gusts Pressure Precip Precip Rate Daily Precip Total
12:00 AM 40.3°F4.6°C 37.0°F2.8°C 88% Calm Calm -- 30.10 in1019.3 mb - 0.00 in0.0 mm 0.00 in0.0 mm
12:10 AM 40.3°F4.6°C 37.0°F2.8°C 88% Calm Calm -- 30.10 in1019.3 mb - 0.00 in0.0 mm 0.00 in0.0 mm
12:20 AM 40.3°F4.6°C 37.0°F2.8°C 88% Calm Calm -- 30.11 in1019.6 mb - 0.00 in0.0 mm 0.00 in0.0 mm
12:30 AM 40.3°F4.6°C 37.0°F2.8°C 88% Calm Calm -- 30.11 in1019.6 mb - 0.00 in0.0 mm 0.00 in0.0 mm
12:40 AM 40.4°F4.7°C 37.1°F2.8°C 88% Calm Calm -- 30.12 in1020.0 mb - 0.00 in0.0 mm 0.00 in0.0 mm
12:50 AM 40.3°F4.6°C 37.1°F2.8°C 88% Calm Calm -- 30.11 in1019.6 mb - 0.00 in0.0 mm 0.00 in0.0 mm
01:00 AM 40.4°F4.7°C 37.1°F2.8°C 88% Calm Calm -- 30.10 in1019.3 mb - 0.00 in0.0 mm 0.00 in0.0 mm
01:10 AM 40.4°F4.7°C 37.1°F2.8°C 88% Calm Calm -- 30.10 in1019.3 mb - 0.00 in0.0 mm 0.00 in0.0 mm
01:20 AM 40.4°F4.7°C 37.1°F2.8°C 88% Calm Calm -- 30.10 in1019.3 mb - 0.00 in0.0 mm 0.00 in0.0 mm
01:30 AM 40.4°F4.7°C 37.1°F2.8°C 88% Calm Calm -- 30.10 in1019.3 mb - 0.00 in0.0 mm 0.00 in0.0 mm
01:40 AM 40.4°F4.7°C 37.1°F2.8°C 88% Calm Calm -- 30.10 in1019.3 mb - 0.00 in0.0 mm 0.00 in0.0 mm
01:50 AM 40.4°F4.7°C 37.1°F2.8°C 88% Calm Calm -- 30.10 in1019.3 mb - 0.00 in0.0 mm 0.00 in0.0 mm
02:00 AM 40.5°F4.7°C 37.2°F2.9°C 88% Calm Calm -- 30.11 in1019.6 mb - 0.00 in0.0 mm 0.00 in0.0 mm
02:10 AM 40.5°F4.7°C 37.3°F2.9°C 88% Calm Calm -- 30.11 in1019.6 mb - 0.00 in0.0 mm 0.00 in0.0 mm
02:20 AM 40.6°F4.8°C 37.3°F2.9°C 88% Calm Calm -- 30.10 in1019.3 mb - 0.00 in0.0 mm 0.00 in0.0 mm
02:30 AM 40.7°F4.8°C 37.4°F3.0°C 88% Calm Calm -- 30.10 in1019.3 mb - 0.00 in0.0 mm 0.00 in0.0 mm
02:40 AM 40.6°F4.8°C 37.3°F2.9°C 88% Calm Calm -- 30.10 in1019.3 mb - 0.00 in0.0 mm 0.00 in0.0 mm
02:50 AM 40.6°F4.8°C 37.6°F3.1°C 89% Calm Calm -- 30.09 in1019.0 mb - 0.00 in0.0 mm 0.00 in0.0 mm
03:00 AM 40.6°F4.8°C 37.6°F3.1°C 89% Calm Calm -- 30.09 in1019.0 mb - 0.00 in0.0 mm 0.00 in0.0 mm
03:10 AM 40.6°F4.8°C 37.6°F3.1°C 89% Calm Calm -- 30.10 in1019.3 mb - 0.00 in0.0 mm 0.00 in0.0 mm
03:20 AM 40.6°F4.8°C 37.6°F3.1°C 89% Calm Calm -- 30.10 in1019.3 mb - 0.00 in0.0 mm 0.00 in0.0 mm
03:30 AM 40.6°F4.8°C 37.6°F3.1°C 89% Calm Calm -- 30.10 in1019.3 mb - 0.00 in0.0 mm 0.00 in0.0 mm
03:40 AM 40.6°F4.8°C 37.6°F3.1°C 89% Calm Calm -- 30.10 in1019.3 mb - 0.00 in0.0 mm 0.00 in0.0 mm
03:50 AM 40.7°F4.8°C 37.7°F3.2°C 89% Calm Calm -- 30.10 in1019.3 mb - 0.00 in0.0 mm 0.00 in0.0 mm
04:00 AM 40.7°F4.8°C 37.7°F3.2°C 89% Calm Calm -- 30.10 in1019.3 mb - 0.00 in0.0 mm 0.00 in0.0 mm
04:10 AM 40.8°F4.9°C 37.8°F3.2°C 89% Calm Calm -- 30.10 in1019.3 mb - 0.00 in0.0 mm 0.00 in0.0 mm
04:20 AM 40.8°F4.9°C 37.8°F3.2°C 89% Calm Calm -- 30.10 in1019.3 mb - 0.00 in0.0 mm 0.00 in0.0 mm
04:30 AM 40.9°F4.9°C 37.9°F3.3°C 89% Calm Calm -- 30.10 in1019.3 mb - 0.00 in0.0 mm 0.00 in0.0 mm
04:40 AM 40.9°F4.9°C 37.9°F3.3°C 89% Calm Calm -- 30.10 in1019.3 mb - 0.00 in0.0 mm 0.00 in0.0 mm
04:50 AM 41.0°F5.0°C 38.0°F3.3°C 89% Calm Calm -- 30.10 in1019.3 mb - 0.00 in0.0 mm 0.00 in0.0 mm
05:00 AM 41.0°F5.0°C 38.0°F3.3°C 89% Calm Calm -- 30.10 in1019.3 mb - 0.00 in0.0 mm 0.00 in0.0 mm
05:10 AM 41.0°F5.0°C 38.0°F3.3°C 89% Calm Calm -- 30.10 in1019.3 mb - 0.00 in0.0 mm 0.00 in0.0 mm
05:20 AM 40.9°F4.9°C 38.0°F3.3°C 89% Calm Calm -- 30.10 in1019.3 mb - 0.00 in0.0 mm 0.00 in0.0 mm
05:30 AM 41.0°F5.0°C 38.0°F3.3°C 89% Calm Calm -- 30.10 in1019.3 mb - 0.00 in0.0 mm 0.00 in0.0 mm
05:40 AM 41.0°F5.0°C 38.0°F3.3°C 89% Calm Calm -- 30.11 in1019.6 mb - 0.00 in0.0 mm 0.00 in0.0 mm
05:50 AM 41.2°F5.1°C 38.2°F3.4°C 89% Calm Calm -- 30.11 in1019.6 mb - 0.00 in0.0 mm 0.00 in0.0 mm
06:00 AM 41.4°F5.2°C 38.4°F3.6°C 89% Calm Calm -- 30.12 in1020.0 mb - 0.00 in0.0 mm 0.00 in0.0 mm
06:10 AM 41.6°F5.3°C 38.6°F3.7°C 89% Calm Calm -- 30.12 in1020.0 mb - 0.00 in0.0 mm 0.00 in0.0 mm
06:20 AM 41.8°F5.4°C 38.8°F3.8°C 89% Calm Calm -- 30.12 in1020.0 mb - 0.00 in0.0 mm 0.00 in0.0 mm
06:30 AM 41.9°F5.5°C 38.9°F3.8°C 89% Calm Calm -- 30.12 in1020.0 mb - 0.00 in0.0 mm 0.00 in0.0 mm
06:40 AM 42.1°F5.6°C 39.1°F3.9°C 89% Calm Calm -- 30.12 in1020.0 mb - 0.00 in0.0 mm 0.00 in0.0 mm
06:50 AM 42.3°F5.7°C 39.3°F4.1°C 89% Calm Calm -- 30.12 in1020.0 mb - 0.00 in0.0 mm 0.00 in0.0 mm
07:00 AM 42.6°F5.9°C 39.6°F4.2°C 89% Calm Calm -- 30.12 in1020.0 mb - 0.00 in0.0 mm 0.00 in0.0 mm
07:10 AM 42.6°F5.9°C 39.6°F4.2°C 89% Calm Calm -- 30.13 in1020.3 mb - 0.00 in0.0 mm 0.00 in0.0 mm
07:20 AM 42.8°F6.0°C 39.8°F4.3°C 89% Calm Calm -- 30.13 in1020.3 mb - 0.00 in0.0 mm 0.00 in0.0 mm
07:30 AM 43.0°F6.1°C 40.0°F4.4°C 89% Calm Calm -- 30.13 in1020.3 mb - 0.00 in0.0 mm 0.00 in0.0 mm
07:40 AM 43.4°F6.3°C 40.4°F4.7°C 89% Calm Calm -- 30.13 in1020.3 mb - 0.00 in0.0 mm 0.00 in0.0 mm
07:50 AM 43.7°F6.5°C 40.7°F4.8°C 89% Calm Calm -- 30.13 in1020.3 mb - 0.00 in0.0 mm 0.00 in0.0 mm
08:00 AM 44.1°F6.7°C 41.1°F5.1°C 89% Calm Calm 1.2 mph1.9 kmh 30.13 in1020.3 mb - 0.00 in0.0 mm 0.00 in0.0 mm
08:10 AM 44.3°F6.8°C 41.0°F5.0°C 88% Calm Calm -- 30.13 in1020.3 mb - 0.00 in0.0 mm 0.00 in0.0 mm
08:20 AM 44.6°F7.0°C 41.3°F5.2°C 88% Calm Calm -- 30.13 in1020.3 mb - 0.00 in0.0 mm 0.00 in0.0 mm
08:30 AM 44.6°F7.0°C 41.0°F5.0°C 87% Calm Calm -- 30.13 in1020.3 mb - 0.00 in0.0 mm 0.00 in0.0 mm
08:40 AM 44.7°F7.1°C 40.8°F4.9°C 86% Calm Calm -- 30.13 in1020.3 mb - 0.00 in0.0 mm 0.00 in0.0 mm
08:50 AM 44.6°F7.0°C 40.4°F4.7°C 85% Calm Calm -- 30.14 in1020.7 mb - 0.00 in0.0 mm 0.00 in0.0 mm
09:00 AM 44.7°F7.1°C 40.5°F4.7°C 85% Calm Calm -- 30.14 in1020.7 mb - 0.00 in0.0 mm 0.00 in0.0 mm
09:10 AM 44.9°F7.2°C 40.4°F4.7°C 84% Calm Calm -- 30.14 in1020.7 mb - 0.00 in0.0 mm 0.00 in0.0 mm
09:20 AM 44.8°F7.1°C 40.3°F4.6°C 84% Calm Calm -- 30.14 in1020.7 mb - 0.00 in0.0 mm 0.00 in0.0 mm
09:30 AM 45.3°F7.4°C 40.7°F4.8°C 84% Calm Calm 2.3 mph3.7 kmh 30.14 in1020.7 mb - 0.00 in0.0 mm 0.00 in0.0 mm
09:40 AM 45.3°F7.4°C 40.5°F4.7°C 83% Calm Calm -- 30.14 in1020.7 mb - 0.00 in0.0 mm 0.00 in0.0 mm
09:50 AM 45.8°F7.7°C 40.6°F4.8°C 82% Calm Calm -- 30.14 in1020.7 mb - 0.00 in0.0 mm 0.00 in0.0 mm
10:00 AM 46.7°F8.2°C 41.1°F5.1°C 81% Calm Calm -- 30.14 in1020.7 mb - 0.00 in0.0 mm 0.00 in0.0 mm
10:10 AM 47.5°F8.6°C 40.6°F4.8°C 77% 1.2 mph WNW1.9 kmh WNW 1.2 mph1.9 kmh 30.14 in1020.7 mb - 0.00 in0.0 mm 0.00 in0.0 mm
10:20 AM 47.5°F8.6°C 40.0°F4.4°C 75% Calm Calm -- 30.14 in1020.7 mb - 0.00 in0.0 mm 0.00 in0.0 mm
10:30 AM 47.9°F8.8°C 39.7°F4.3°C 73% Calm Calm -- 30.14 in1020.7 mb - 0.00 in0.0 mm 0.00 in0.0 mm
10:40 AM 48.2°F9.0°C 39.6°F4.2°C 72% Calm Calm 2.3 mph3.7 kmh 30.14 in1020.7 mb - 0.00 in0.0 mm 0.00 in0.0 mm
10:50 AM 48.7°F9.3°C 39.7°F4.3°C 71% 2.3 mph W3.7 kmh W 3.5 mph5.6 kmh 30.14 in1020.7 mb - 0.00 in0.0 mm 0.00 in0.0 mm
11:00 AM 48.6°F9.2°C 38.9°F3.8°C 69% 1.2 mph WNW1.9 kmh WNW 2.3 mph3.7 kmh 30.14 in1020.7 mb - 0.00 in0.0 mm 0.00 in0.0 mm
11:10 AM 48.3°F9.1°C 39.3°F4.1°C 71% 2.3 mph NW3.7 kmh NW 3.5 mph5.6 kmh 30.14 in1020.7 mb - 0.00 in0.0 mm 0.00 in0.0 mm
11:20 AM 48.4°F9.1°C 39.5°F4.2°C 71% Calm Calm -- 30.14 in1020.7 mb - 0.00 in0.0 mm 0.00 in0.0 mm
11:30 AM 49.8°F9.9°C 38.9°F3.8°C 66% Calm Calm -- 30.14 in1020.7 mb - 0.00 in0.0 mm 0.00 in0.0 mm
11:40 AM 49.8°F9.9°C 38.1°F3.4°C 64% 2.3 mph NW3.7 kmh NW 6.9 mph11.1 kmh 30.14 in1020.7 mb - 0.00 in0.0 mm 0.00 in0.0 mm
11:50 AM 49.7°F9.8°C 38.0°F3.3°C 64% Calm Calm 2.3 mph3.7 kmh 30.14 in1020.7 mb - 0.00 in0.0 mm 0.00 in0.0 mm
12:00 PM 50.0°F10.0°C 37.5°F3.1°C 62% 1.2 mph NW1.9 kmh NW 3.5 mph5.6 kmh 30.14 in1020.7 mb - 0.00 in0.0 mm 0.00 in0.0 mm
12:10 PM 50.6°F10.3°C 38.5°F3.6°C 63% 3.5 mph NW5.6 kmh NW 5.8 mph9.3 kmh 30.14 in1020.7 mb - 0.00 in0.0 mm 0.00 in0.0 mm
12:20 PM 50.6°F10.3°C 38.1°F3.4°C 62% 2.3 mph WSW3.7 kmh WSW 6.9 mph11.1 kmh 30.14 in1020.7 mb - 0.00 in0.0 mm 0.00 in0.0 mm
12:30 PM 51.0°F10.6°C 38.5°F3.6°C 62% 2.3 mph NW3.7 kmh NW 6.9 mph11.1 kmh 30.14 in1020.7 mb - 0.00 in0.0 mm 0.00 in0.0 mm
12:40 PM 51.7°F10.9°C 37.8°F3.2°C 59% 4.6 mph NW7.4 kmh NW 5.8 mph9.3 kmh 30.14 in1020.7 mb - 0.00 in0.0 mm 0.00 in0.0 mm
12:50 PM 51.1°F10.6°C 37.3°F2.9°C 59% 3.5 mph WSW5.6 kmh WSW 10.4 mph16.7 kmh 30.15 in1021.0 mb - 0.00 in0.0 mm 0.00 in0.0 mm
01:00 PM 51.2°F10.7°C 36.9°F2.7°C 58% 2.3 mph W3.7 kmh W 3.5 mph5.6 kmh 30.15 in1021.0 mb - 0.00 in0.0 mm 0.00 in0.0 mm
01:10 PM 51.6°F10.9°C 36.9°F2.7°C 57% 2.3 mph NW3.7 kmh NW 3.5 mph5.6 kmh 30.15 in1021.0 mb - 0.00 in0.0 mm 0.00 in0.0 mm
01:20 PM 51.7°F10.9°C 36.1°F2.3°C 55% Calm Calm -- 30.14 in1020.7 mb - 0.00 in0.0 mm 0.00 in0.0 mm
01:30 PM 51.9°F11.1°C 36.2°F2.3°C 55% Calm Calm 6.9 mph11.1 kmh 30.15 in1021.0 mb - 0.00 in0.0 mm 0.00 in0.0 mm
01:40 PM 52.5°F11.4°C 36.8°F2.7°C 55% Calm Calm -- 30.15 in1021.0 mb - 0.00 in0.0 mm 0.00 in0.0 mm
01:50 PM 53.2°F11.8°C 36.0°F2.2°C 52% 2.3 mph W3.7 kmh W 3.5 mph5.6 kmh 30.14 in1020.7 mb - 0.00 in0.0 mm 0.00 in0.0 mm
02:00 PM 53.2°F11.8°C 36.5°F2.5°C 53% Calm Calm 5.8 mph9.3 kmh 30.14 in1020.7 mb - 0.00 in0.0 mm 0.00 in0.0 mm
02:10 PM 52.6°F11.4°C 35.9°F2.2°C 53% 2.3 mph NW3.7 kmh NW 8.1 mph13.0 kmh 30.14 in1020.7 mb - 0.00 in0.0 mm 0.00 in0.0 mm
02:20 PM 52.8°F11.6°C 35.1°F1.7°C 51% 2.3 mph WSW3.7 kmh WSW 4.6 mph7.4 kmh 30.14 in1020.7 mb - 0.00 in0.0 mm 0.00 in0.0 mm
02:30 PM 52.8°F11.6°C 35.1°F1.7°C 51% Calm Calm -- 30.13 in1020.3 mb - 0.00 in0.0 mm 0.00 in0.0 mm
02:40 PM 53.6°F12.0°C 35.9°F2.2°C 51% 1.2 mph NW1.9 kmh NW 1.2 mph1.9 kmh 30.13 in1020.3 mb - 0.00 in0.0 mm 0.00 in0.0 mm
02:50 PM 53.2°F11.8°C 34.5°F1.4°C 49% Calm Calm -- 30.12 in1020.0 mb - 0.00 in0.0 mm 0.00 in0.0 mm
03:00 PM 52.9°F11.6°C 34.7°F1.5°C 50% 1.2 mph W1.9 kmh W 3.5 mph5.6 kmh 30.12 in1020.0 mb - 0.00 in0.0 mm 0.00 in0.0 mm
03:10 PM 53.2°F11.8°C 35.0°F1.7°C 50% Calm Calm -- 30.11 in1019.6 mb - 0.00 in0.0 mm 0.00 in0.0 mm
03:20 PM 53.4°F11.9°C 34.7°F1.5°C 49% 1.2 mph WSW1.9 kmh WSW -- 30.11 in1019.6 mb - 0.00 in0.0 mm 0.00 in0.0 mm
03:30 PM 54.1°F12.3°C 35.3°F1.8°C 49% 3.5 mph W5.6 kmh W 4.6 mph7.4 kmh 30.11 in1019.6 mb - 0.00 in0.0 mm 0.00 in0.0 mm
03:40 PM 53.5°F11.9°C 35.3°F1.8°C 50% Calm Calm -- 30.11 in1019.6 mb - 0.00 in0.0 mm 0.00 in0.0 mm
03:50 PM 54.9°F12.7°C 35.0°F1.7°C 47% 1.2 mph WNW1.9 kmh WNW 3.5 mph5.6 kmh 30.10 in1019.3 mb - 0.00 in0.0 mm 0.00 in0.0 mm
04:00 PM 56.6°F13.7°C 34.9°F1.6°C 44% 3.5 mph SW5.6 kmh SW 6.9 mph11.1 kmh 30.10 in1019.3 mb - 0.00 in0.0 mm 0.00 in0.0 mm
04:10 PM 57.1°F13.9°C 34.8°F1.6°C 43% Calm Calm 3.5 mph5.6 kmh 30.10 in1019.3 mb - 0.00 in0.0 mm 0.00 in0.0 mm
04:20 PM 55.5°F13.1°C 33.9°F1.1°C 44% Calm Calm -- 30.10 in1019.3 mb - 0.00 in0.0 mm 0.00 in0.0 mm
04:30 PM 54.3°F12.4°C 32.9°F0.5°C 44% Calm Calm -- 30.09 in1019.0 mb - 0.00 in0.0 mm 0.00 in0.0 mm
04:40 PM 54.2°F12.3°C 33.3°F0.7°C 45% Calm Calm -- 30.09 in1019.0 mb - 0.00 in0.0 mm 0.00 in0.0 mm
04:50 PM 54.0°F12.2°C 33.7°F0.9°C 46% Calm Calm -- 30.09 in1019.0 mb - 0.00 in0.0 mm 0.00 in0.0 mm
05:00 PM 54.4°F12.4°C 32.9°F0.5°C 44% Calm Calm 1.2 mph1.9 kmh 30.09 in1019.0 mb - 0.00 in0.0 mm 0.00 in0.0 mm
05:10 PM 56.0°F13.3°C 33.3°F0.7°C 42% 2.3 mph NNW3.7 kmh NNW 8.1 mph13.0 kmh 30.09 in1019.0 mb - 0.00 in0.0 mm 0.00 in0.0 mm
05:20 PM 56.7°F13.7°C 33.8°F1.0°C 42% Calm Calm 5.8 mph9.3 kmh 30.09 in1019.0 mb - 0.00 in0.0 mm 0.00 in0.0 mm
05:30 PM 56.2°F13.4°C 32.7°F0.4°C 41% Calm Calm -- 30.10 in1019.3 mb - 0.00 in0.0 mm 0.00 in0.0 mm
05:40 PM 56.1°F13.4°C 32.1°F0.1°C 40% 2.3 mph WNW3.7 kmh WNW 3.5 mph5.6 kmh 30.10 in1019.3 mb - 0.00 in0.0 mm 0.00 in0.0 mm
05:50 PM 54.9°F12.7°C 32.2°F0.1°C 42% Calm Calm -- 30.10 in1019.3 mb - 0.00 in0.0 mm 0.00 in0.0 mm
06:00 PM 54.5°F12.5°C 33.5°F0.8°C 45% Calm Calm -- 30.10 in1019.3 mb - 0.00 in0.0 mm 0.00 in0.0 mm
06:10 PM 53.9°F12.2°C 33.0°F0.6°C 45% Calm Calm -- 30.10 in1019.3 mb - 0.00 in0.0 mm 0.00 in0.0 mm
06:20 PM 52.9°F11.6°C 32.7°F0.4°C 46% 1.2 mph NW1.9 kmh NW 3.5 mph5.6 kmh 30.10 in1019.3 mb - 0.00 in0.0 mm 0.00 in0.0 mm
06:30 PM 52.2°F11.2°C 33.1°F0.6°C 48% Calm Calm -- 30.10 in1019.3 mb - 0.00 in0.0 mm 0.00 in0.0 mm
06:40 PM 51.9°F11.1°C 33.3°F0.7°C 49% Calm Calm -- 30.10 in1019.3 mb - 0.00 in0.0 mm 0.00 in0.0 mm
06:50 PM 51.5°F10.8°C 33.5°F0.8°C 50% 1.2 mph NW1.9 kmh NW 1.2 mph1.9 kmh 30.11 in1019.6 mb - 0.00 in0.0 mm 0.00 in0.0 mm
07:00 PM 50.9°F10.5°C 32.9°F0.5°C 50% Calm Calm -- 30.11 in1019.6 mb - 0.00 in0.0 mm 0.00 in0.0 mm
07:10 PM 50.2°F10.1°C 33.2°F0.7°C 52% Calm Calm -- 30.11 in1019.6 mb - 0.00 in0.0 mm 0.00 in0.0 mm
07:20 PM 49.5°F9.7°C 32.6°F0.3°C 52% Calm Calm -- 30.11 in1019.6 mb - 0.00 in0.0 mm 0.00 in0.0 mm
07:30 PM 48.7°F9.3°C 32.4°F0.2°C 53% Calm Calm -- 30.11 in1019.6 mb - 0.00 in0.0 mm 0.00 in0.0 mm
07:40 PM 47.9°F8.8°C 32.5°F0.3°C 55% Calm Calm -- 30.11 in1019.6 mb - 0.00 in0.0 mm 0.00 in0.0 mm
07:50 PM 46.8°F8.2°C 32.8°F0.4°C 58% Calm Calm -- 30.11 in1019.6 mb - 0.00 in0.0 mm 0.00 in0.0 mm
08:00 PM 45.9°F7.7°C 32.8°F0.4°C 60% Calm Calm -- 30.12 in1020.0 mb - 0.00 in0.0 mm 0.00 in0.0 mm
08:10 PM 45.2°F7.3°C 32.9°F0.5°C 62% Calm Calm -- 30.12 in1020.0 mb - 0.00 in0.0 mm 0.00 in0.0 mm
08:20 PM 44.4°F6.9°C 32.6°F0.3°C 63% Calm Calm -- 30.12 in1020.0 mb - 0.00 in0.0 mm 0.00 in0.0 mm
08:30 PM 43.6°F6.4°C 32.2°F0.1°C 64% Calm Calm -- 30.13 in1020.3 mb - 0.00 in0.0 mm 0.00 in0.0 mm
08:40 PM 42.9°F6.1°C 32.3°F0.2°C 66% Calm Calm -- 30.13 in1020.3 mb - 0.00 in0.0 mm 0.00 in0.0 mm
08:50 PM 42.2°F5.7°C 32.0°F0.0°C 67% Calm Calm -- 30.13 in1020.3 mb - 0.00 in0.0 mm 0.00 in0.0 mm
09:00 PM 41.6°F5.3°C 32.2°F0.1°C 69% Calm Calm -- 30.13 in1020.3 mb - 0.00 in0.0 mm 0.00 in0.0 mm
09:10 PM 41.1°F5.1°C 32.0°F0.0°C 70% Calm Calm -- 30.13 in1020.3 mb - 0.00 in0.0 mm 0.00 in0.0 mm
09:20 PM 40.6°F4.8°C 31.9°F-0.1°C 71% Calm Calm -- 30.13 in1020.3 mb - 0.00 in0.0 mm 0.00 in0.0 mm
09:30 PM 40.2°F4.6°C 31.9°F-0.1°C 72% Calm Calm -- 30.13 in1020.3 mb - 0.00 in0.0 mm 0.00 in0.0 mm
09:40 PM 40.0°F4.4°C 32.0°F0.0°C 73% Calm Calm -- 30.13 in1020.3 mb - 0.00 in0.0 mm 0.00 in0.0 mm
09:50 PM 39.9°F4.4°C 32.3°F0.2°C 74% Calm Calm -- 30.13 in1020.3 mb - 0.00 in0.0 mm 0.00 in0.0 mm
10:00 PM 39.7°F4.3°C 32.1°F0.1°C 74% Calm Calm -- 30.13 in1020.3 mb - 0.00 in0.0 mm 0.00 in0.0 mm
10:10 PM 39.2°F4.0°C 31.6°F-0.2°C 74% Calm Calm -- 30.13 in1020.3 mb - 0.00 in0.0 mm 0.00 in0.0 mm
10:20 PM 38.8°F3.8°C 31.6°F-0.2°C 75% Calm Calm -- 30.13 in1020.3 mb - 0.00 in0.0 mm 0.00 in0.0 mm
10:30 PM 38.5°F3.6°C 31.9°F-0.1°C 77% Calm Calm -- 30.13 in1020.3 mb - 0.00 in0.0 mm 0.00 in0.0 mm
10:40 PM 38.2°F3.4°C 31.6°F-0.2°C 77% Calm Calm -- 30.13 in1020.3 mb - 0.00 in0.0 mm 0.00 in0.0 mm
10:50 PM 37.9°F3.3°C 31.7°F-0.2°C 78% Calm Calm -- 30.13 in1020.3 mb - 0.00 in0.0 mm 0.00 in0.0 mm
11:00 PM 37.6°F3.1°C 31.4°F-0.3°C 78% Calm Calm -- 30.13 in1020.3 mb - 0.00 in0.0 mm 0.00 in0.0 mm
11:10 PM 37.3°F2.9°C 31.4°F-0.3°C 79% Calm Calm -- 30.13 in1020.3 mb - 0.00 in0.0 mm 0.00 in0.0 mm
11:20 PM 37.0°F2.8°C 31.4°F-0.3°C 80% Calm Calm -- 30.13 in1020.3 mb - 0.00 in0.0 mm 0.00 in0.0 mm
11:30 PM 36.7°F2.6°C 31.4°F-0.3°C 81% Calm Calm -- 30.13 in1020.3 mb - 0.00 in0.0 mm 0.00 in0.0 mm
11:40 PM 36.4°F2.4°C 31.1°F-0.5°C 81% Calm Calm -- 30.13 in1020.3 mb - 0.00 in0.0 mm 0.00 in0.0 mm
11:50 PM 36.1°F2.3°C 31.1°F-0.5°C 82% Calm Calm -- 30.13 in1020.3 mb - 0.00 in0.0 mm 0.00 in0.0 mm